Time;durP1;ratioP1;P1;durP2;ratioP2;P2;SDS_P1;SDS_P2;PMS_P1;PMS_P2;Temp;Humidity;BMP_temperature;BMP_pressure;BME280_temperature;BME280_humidity;BME280_pressure;Samples;Min_cycle;Max_cycle;Signal;HPM_P1;HPM_P2
2023/10/12 00:02:27;;;;;;;;;;;;;;;15.10;75.47;100071.60;105758;1262;72677;-77
2023/10/12 00:05:00;;;;;;;;;;;;;;;15.00;75.74;100064.04;105869;1259;62088;-79
2023/10/12 00:07:42;;;;;;;;;;;;;;;14.91;76.51;100069.02;105715;1262;61938;-76
2023/10/12 00:12:36;;;;;;;;;;;;;;;14.63;78.28;100087.65;105618;1262;125367;-77
2023/10/12 00:15:17;;;;;;;;;;;;;;;14.57;78.43;100090.30;105903;1259;72746;-77
2023/10/12 00:17:44;;;;;;;;;;;;;;;14.52;78.90;100085.88;105730;1258;125575;-77
2023/10/12 00:20:21;;;;;;;;;;;;;;;14.48;79.32;100090.11;105899;1260;62085;-77
2023/10/12 00:22:48;;;;;;;;;;;;;;;14.49;79.63;100106.70;105762;1260;75570;-77
2023/10/12 00:25:17;;;;;;;;;;;;;;;14.52;79.83;100095.23;105760;1260;125791;-77
2023/10/12 00:27:43;;;;;;;;;;;;;;;14.56;80.15;100085.88;105701;1262;72707;-77
2023/10/12 00:30:12;;;;;;;;;;;;;;;14.58;80.45;100087.13;105517;1262;125491;-77
2023/10/12 00:32:39;;;;;;;;;;;;;;;14.59;80.57;100093.48;106143;1261;61915;-77
2023/10/12 00:35:08;;;;;;;;;;;;;;;14.60;80.70;100100.17;105686;1259;125517;-78
2023/10/12 00:37:34;;;;;;;;;;;;;;;14.63;80.97;100094.19;105818;1259;64820;-77
2023/10/12 00:40:22;;;;;;;;;;;;;;;14.63;81.06;100080.41;105681;1259;73750;-77
2023/10/12 00:42:51;;;;;;;;;;;;;;;14.66;81.19;100077.75;105612;1263;125391;-77
2023/10/12 00:45:28;;;;;;;;;;;;;;;14.67;81.22;100074.23;108023;1259;59766;-77
2023/10/12 00:47:58;;;;;;;;;;;;;;;14.69;81.28;100070.70;105625;1259;125120;-77
2023/10/12 00:50:27;;;;;;;;;;;;;;;14.71;81.33;100074.04;105762;1259;64171;-77
2023/10/12 00:55:21;;;;;;;;;;;;;;;14.77;81.48;100061.65;105654;1259;125066;-76
2023/10/12 00:57:50;;;;;;;;;;;;;;;14.82;81.72;100070.64;105785;1259;62278;-77
2023/10/12 01:00:17;;;;;;;;;;;;;;;14.84;81.66;100075.05;108788;1259;126843;-78
2023/10/12 01:02:45;;;;;;;;;;;;;;;14.87;81.69;100074.70;108975;1259;65038;-78
2023/10/12 01:05:11;;;;;;;;;;;;;;;14.90;81.67;100074.33;108807;1259;125538;-78
2023/10/12 01:07:38;;;;;;;;;;;;;;;14.93;81.81;100075.19;108892;1259;59720;-78
2023/10/12 01:10:10;;;;;;;;;;;;;;;14.98;81.99;100080.48;106918;1262;62140;-78
2023/10/12 01:12:37;;;;;;;;;;;;;;;15.03;81.92;100081.88;105600;1259;125315;-77
2023/10/12 01:15:16;;;;;;;;;;;;;;;15.06;81.95;100084.15;105717;1262;66091;-76
2023/10/12 01:17:44;;;;;;;;;;;;;;;15.11;82.06;100089.98;108798;1260;125472;-78
2023/10/12 01:20:17;;;;;;;;;;;;;;;15.14;82.07;100087.66;106229;1258;62105;-78
2023/10/12 01:22:46;;;;;;;;;;;;;;;15.18;82.09;100086.23;105820;1259;62920;-78
2023/10/12 01:25:20;;;;;;;;;;;;;;;15.20;82.18;100086.21;105711;1259;126322;-78
2023/10/12 01:27:47;;;;;;;;;;;;;;;15.22;82.16;100090.63;105845;1260;64778;-78
2023/10/12 01:30:21;;;;;;;;;;;;;;;15.22;82.04;100094.88;105822;1260;125285;-77
2023/10/12 01:32:57;;;;;;;;;;;;;;;15.23;82.14;100101.23;105805;1262;62105;-78
2023/10/12 01:35:32;;;;;;;;;;;;;;;15.23;82.12;100096.83;105792;1258;125577;-78
2023/10/12 01:38:05;;;;;;;;;;;;;;;15.24;82.23;100098.94;105723;1259;76148;-78
2023/10/12 01:40:44;;;;;;;;;;;;;;;15.25;82.21;100100.67;105677;1260;66273;-78
2023/10/12 01:43:13;;;;;;;;;;;;;;;15.25;82.31;100104.05;105558;1260;125134;-80
2023/10/12 01:45:43;;;;;;;;;;;;;;;15.24;82.31;100102.29;105700;1258;62590;-77
2023/10/12 01:50:40;;;;;;;;;;;;;;;15.23;82.34;100104.94;105751;1262;75482;-77
2023/10/12 01:53:17;;;;;;;;;;;;;;;15.23;82.34;100099.45;105571;1263;125761;-77
2023/10/12 01:55:43;;;;;;;;;;;;;;;15.24;82.30;100097.16;105796;1260;71392;-77
2023/10/12 01:58:12;;;;;;;;;;;;;;;15.23;82.30;100100.88;105787;1260;62460;-77
2023/10/12 02:00:42;;;;;;;;;;;;;;;15.22;82.18;100097.35;105522;1260;125513;-77
2023/10/12 02:03:31;;;;;;;;;;;;;;;15.20;82.20;100091.35;105661;1259;75584;-77
2023/10/12 02:06:06;;;;;;;;;;;;;;;15.18;82.25;100086.05;105773;1260;126069;-78
2023/10/12 02:08:33;;;;;;;;;;;;;;;15.17;82.33;100077.41;105786;1262;70823;-78
2023/10/12 02:11:09;;;;;;;;;;;;;;;15.15;82.30;100075.46;105603;1259;62249;-79
2023/10/12 02:13:36;;;;;;;;;;;;;;;15.14;82.20;100074.23;105732;1258;62099;-77
2023/10/12 02:16:03;;;;;;;;;;;;;;;15.13;82.21;100065.75;105648;1262;75537;-77
2023/10/12 02:18:34;;;;;;;;;;;;;;;15.13;82.16;100058.17;105723;1262;125622;-77
2023/10/12 02:23:38;;;;;;;;;;;;;;;15.07;82.02;100048.81;105801;1260;125262;-75
2023/10/12 02:26:40;;;;;;;;;;;;;;;15.05;82.07;100049.00;105757;1258;62517;-75
2023/10/12 02:34:16;;;;;;;;;;;;;;;15.01;82.07;100048.65;105826;1260;71398;-75
2023/10/12 02:37:00;;;;;;;;;;;;;;;15.00;81.96;100050.60;105918;1262;125244;-75
2023/10/12 02:39:27;;;;;;;;;;;;;;;14.99;82.02;100041.25;108899;1258;59756;-75
2023/10/12 02:42:10;;;;;;;;;;;;;;;14.98;81.99;100032.42;108760;1260;126034;-76
2023/10/12 02:44:43;;;;;;;;;;;;;;;14.96;81.99;100035.96;107189;1262;66284;-75
2023/10/12 02:47:17;;;;;;;;;;;;;;;14.94;81.89;100043.92;105572;1259;125702;-75
2023/10/12 02:49:46;;;;;;;;;;;;;;;14.92;82.05;100041.98;105733;1262;61980;-76
2023/10/12 02:52:14;;;;;;;;;;;;;;;14.91;82.05;100043.58;105706;1259;62056;-75
2023/10/12 02:54:51;;;;;;;;;;;;;;;14.89;82.14;100056.30;107739;1260;125340;-76
2023/10/12 02:57:25;;;;;;;;;;;;;;;14.89;82.18;100052.60;105686;1258;66081;-75
2023/10/12 03:00:00;;;;;;;;;;;;;;;14.88;82.21;100052.42;105622;1261;125602;-75
2023/10/12 03:02:33;;;;;;;;;;;;;;;14.88;82.30;100046.41;105712;1262;62048;-75
2023/10/12 03:05:06;;;;;;;;;;;;;;;14.88;82.31;100042.18;108922;1257;60054;-76
2023/10/12 03:07:35;;;;;;;;;;;;;;;14.88;82.28;100044.13;107649;1259;74745;-75
2023/10/12 03:10:14;;;;;;;;;;;;;;;14.87;82.34;100042.37;108819;1260;65960;-76
2023/10/12 03:12:43;;;;;;;;;;;;;;;14.86;82.29;100040.59;108806;1259;125420;-76
2023/10/12 03:15:13;;;;;;;;;;;;;;;14.86;82.40;100045.36;107081;1260;62165;-75
2023/10/12 03:17:45;;;;;;;;;;;;;;;14.84;82.36;100046.08;105580;1258;125361;-76
2023/10/12 03:20:28;;;;;;;;;;;;;;;14.83;82.42;100048.20;105695;1259;75623;-76
2023/10/12 03:23:00;;;;;;;;;;;;;;;14.82;82.48;100047.85;105750;1262;64691;-76
2023/10/12 03:25:38;;;;;;;;;;;;;;;14.81;82.58;100043.80;105526;1260;124948;-76
2023/10/12 03:30:53;;;;;;;;;;;;;;;14.79;82.76;100057.59;105603;1259;125465;-75
2023/10/12 03:33:19;;;;;;;;;;;;;;;14.79;82.86;100056.17;105840;1262;75554;-76
2023/10/12 03:35:57;;;;;;;;;;;;;;;14.81;82.97;100057.58;105611;1264;126121;-75
2023/10/12 03:38:25;;;;;;;;;;;;;;;14.82;83.05;100055.27;105745;1259;72533;-77
2023/10/12 03:41:46;;;;;;;;;;;;;;;14.84;83.06;100052.43;105900;1262;62091;-76
2023/10/12 03:43:46;;;;;;;;;;;;;;;14.88;83.08;100060.73;105751;1262;61994;-77
2023/10/12 03:46:26;;;;;;;;;;;;;;;14.90;83.02;100063.72;105874;1259;75271;-75
2023/10/12 03:51:41;;;;;;;;;;;;;;;14.95;82.90;100037.56;105692;1259;72744;-75
2023/10/12 03:54:26;;;;;;;;;;;;;;;14.96;82.74;100025.35;105604;1259;125276;-75
2023/10/12 03:56:59;;;;;;;;;;;;;;;14.97;82.77;100000.79;105662;1259;62054;-75
2023/10/12 03:59:36;;;;;;;;;;;;;;;14.97;82.70;100010.52;105633;1259;125385;-78
2023/10/12 04:02:03;;;;;;;;;;;;;;;14.99;82.82;100034.38;105652;1257;66253;-75
2023/10/12 04:04:41;;;;;;;;;;;;;;;15.00;82.69;100033.30;105804;1260;73047;-75
2023/10/12 04:07:16;;;;;;;;;;;;;;;15.00;82.71;100045.66;105648;1259;126341;-77
2023/10/12 04:09:43;;;;;;;;;;;;;;;15.01;82.68;100050.25;105947;1262;62117;-77
2023/10/12 04:12:29;;;;;;;;;;;;;;;15.02;82.65;100049.19;105576;1259;125623;-77
2023/10/12 04:14:56;;;;;;;;;;;;;;;15.03;82.73;100046.89;105736;1260;65528;-75
2023/10/12 04:17:41;;;;;;;;;;;;;;;15.06;82.80;100056.95;105890;1262;125423;-74
2023/10/12 04:20:15;;;;;;;;;;;;;;;15.07;82.68;100068.79;105775;1262;62060;-74
2023/10/12 04:25:33;;;;;;;;;;;;;;;15.03;82.77;100088.23;105771;1259;125109;-75
2023/10/12 04:28:22;;;;;;;;;;;;;;;14.97;82.78;100085.61;105736;1260;66314;-75
2023/10/12 04:33:24;;;;;;;;;;;;;;;14.82;82.98;100113.91;105613;1259;62151;-76
2023/10/12 04:38:46;;;;;;;;;;;;;;;14.74;83.02;100125.42;105882;1261;75501;-79
2023/10/12 04:41:23;;;;;;;;;;;;;;;14.67;82.89;100116.08;106387;1258;125257;-87
2023/10/12 04:43:53;;;;;;;;;;;;;;;14.58;82.43;100116.97;106517;1261;71789;-78
2023/10/12 04:48:51;;;;;;;;;;;;;;;14.40;82.14;100121.90;105727;1262;125147;-78
2023/10/12 04:51:21;;;;;;;;;;;;;;;14.30;81.95;100124.53;108989;1256;75570;-75
2023/10/12 04:53:58;;;;;;;;;;;;;;;14.24;81.91;100138.48;108606;1261;125219;-75
2023/10/12 04:56:26;;;;;;;;;;;;;;;14.19;82.04;100151.18;105723;1259;72683;-73
2023/10/12 04:58:56;;;;;;;;;;;;;;;14.16;82.06;100166.19;105704;1259;62155;-73
2023/10/12 05:01:29;;;;;;;;;;;;;;;14.13;82.04;100166.73;105613;1259;125379;-76
2023/10/12 05:04:09;;;;;;;;;;;;;;;14.05;81.62;100180.30;105755;1264;75783;-73
2023/10/12 05:06:46;;;;;;;;;;;;;;;13.91;80.88;100190.50;105717;1262;125247;-73
2023/10/12 05:09:12;;;;;;;;;;;;;;;13.75;80.35;100196.10;105790;1259;71760;-73
2023/10/12 05:11:39;;;;;;;;;;;;;;;13.62;80.22;100196.76;105756;1262;126495;-76
2023/10/12 05:14:15;;;;;;;;;;;;;;;13.53;80.32;100199.38;105675;1260;62168;-76
2023/10/12 05:16:42;;;;;;;;;;;;;;;13.44;80.10;100188.75;105893;1259;75560;-77
2023/10/12 05:19:10;;;;;;;;;;;;;;;13.35;80.02;100187.30;105835;1260;125144;-76
2023/10/12 05:21:37;;;;;;;;;;;;;;;13.28;80.15;100186.00;105945;1259;72526;-76
2023/10/12 05:24:04;;;;;;;;;;;;;;;13.21;80.23;100184.55;105731;1263;125607;-76
2023/10/12 05:26:31;;;;;;;;;;;;;;;13.15;80.22;100188.75;105867;1262;62055;-76
2023/10/12 05:31:48;;;;;;;;;;;;;;;13.04;80.24;100202.61;105759;1262;66318;-77
2023/10/12 05:34:44;;;;;;;;;;;;;;;13.02;80.24;100204.19;105765;1259;72713;-77
2023/10/12 05:39:46;;;;;;;;;;;;;;;12.94;80.03;100220.16;106015;1260;62816;-79
2023/10/12 05:42:14;;;;;;;;;;;;;;;12.92;80.03;100220.33;105747;1262;125154;-77
2023/10/12 05:44:44;;;;;;;;;;;;;;;12.89;80.00;100214.83;105908;1262;65827;-78
2023/10/12 05:47:13;;;;;;;;;;;;;;;12.89;79.98;100220.30;105914;1260;72651;-79
2023/10/12 05:49:41;;;;;;;;;;;;;;;12.88;79.70;100219.41;108715;1258;125467;-79
2023/10/12 05:52:08;;;;;;;;;;;;;;;12.86;79.52;100223.61;108847;1259;59933;-79
2023/10/12 05:54:38;;;;;;;;;;;;;;;12.84;79.42;100224.85;108804;1259;125356;-79
2023/10/12 05:57:19;;;;;;;;;;;;;;;12.87;79.42;100232.09;107953;1262;66105;-79
2023/10/12 05:59:49;;;;;;;;;;;;;;;12.89;79.17;100239.15;105645;1258;125443;-79
2023/10/12 06:02:18;;;;;;;;;;;;;;;12.93;79.10;100250.96;105693;1260;62056;-79
2023/10/12 06:04:47;;;;;;;;;;;;;;;12.95;78.81;100263.83;105768;1259;61939;-79
2023/10/12 06:07:14;;;;;;;;;;;;;;;12.98;78.78;100276.00;105703;1260;125834;-79
2023/10/12 06:09:40;;;;;;;;;;;;;;;13.00;78.63;100285.19;105857;1262;65251;-79
2023/10/12 06:12:07;;;;;;;;;;;;;;;13.01;78.40;100288.02;105880;1260;125625;-79
2023/10/12 06:14:35;;;;;;;;;;;;;;;13.03;78.27;100288.20;105974;1259;60361;-78
2023/10/12 06:17:27;;;;;;;;;;;;;;;13.07;78.38;100290.52;105942;1262;62051;-79
2023/10/12 06:19:54;;;;;;;;;;;;;;;13.12;78.46;100293.38;105812;1262;74362;-79
2023/10/12 06:22:23;;;;;;;;;;;;;;;13.17;78.39;100306.11;105914;1262;66012;-79
2023/10/12 06:24:52;;;;;;;;;;;;;;;13.26;78.30;100321.31;108839;1257;125285;-80
2023/10/12 06:29:49;;;;;;;;;;;;;;;13.37;77.92;100326.72;105597;1259;125289;-80
2023/10/12 06:32:19;;;;;;;;;;;;;;;13.42;77.84;100331.52;105721;1262;75582;-79
2023/10/12 06:35:02;;;;;;;;;;;;;;;13.49;77.83;100341.58;105726;1260;65083;-79
2023/10/12 06:45:46;;;;;;;;;;;;;;;13.72;77.56;100362.73;105753;1265;74121;-78
2023/10/12 06:51:13;;;;;;;;;;;;;;;13.84;77.31;100360.14;105753;1260;72446;-79
2023/10/12 06:53:41;;;;;;;;;;;;;;;13.91;77.09;100359.48;105489;1259;125442;-78
2023/10/12 06:59:21;;;;;;;;;;;;;;;14.08;76.95;100371.02;105670;1261;75463;-78
2023/10/12 07:04:15;;;;;;;;;;;;;;;14.25;76.54;100380.98;105722;1263;72678;-79
2023/10/12 07:07:07;;;;;;;;;;;;;;;14.33;76.35;100379.77;105560;1260;125154;-80
2023/10/12 07:09:46;;;;;;;;;;;;;;;14.40;76.12;100380.85;108470;1263;60284;-80
2023/10/12 07:12:13;;;;;;;;;;;;;;;14.46;75.74;100384.59;105552;1260;125324;-79
2023/10/12 07:14:47;;;;;;;;;;;;;;;14.47;75.57;100378.40;105634;1259;65157;-80
2023/10/12 07:17:14;;;;;;;;;;;;;;;14.46;75.36;100378.95;105615;1260;71226;-81
2023/10/12 07:19:46;;;;;;;;;;;;;;;14.47;75.22;100386.54;106170;1264;124876;-80
2023/10/12 07:22:18;;;;;;;;;;;;;;;14.47;75.08;100395.53;106111;1259;62081;-81
2023/10/12 07:24:45;;;;;;;;;;;;;;;14.46;74.80;100400.30;105828;1263;124832;-79
2023/10/12 07:27:12;;;;;;;;;;;;;;;14.43;74.56;100405.75;105572;1263;66182;-78
2023/10/12 07:29:44;;;;;;;;;;;;;;;14.41;74.73;100412.11;105541;1260;125745;-78
2023/10/12 07:34:58;;;;;;;;;;;;;;;14.34;74.32;100408.55;105726;1265;62082;-78
2023/10/12 07:37:27;;;;;;;;;;;;;;;14.28;74.03;100416.98;105583;1260;125258;-79
2023/10/12 07:40:07;;;;;;;;;;;;;;;14.17;73.90;100419.60;105619;1262;65103;-78
2023/10/12 07:42:45;;;;;;;;;;;;;;;14.08;73.82;100424.83;105645;1259;125985;-78
2023/10/12 07:45:14;;;;;;;;;;;;;;;13.99;73.67;100432.91;105653;1260;62062;-78
2023/10/12 07:47:42;;;;;;;;;;;;;;;13.93;73.58;100434.63;105536;1262;125567;-78
2023/10/12 07:50:15;;;;;;;;;;;;;;;13.90;73.51;100436.20;105763;1259;75909;-79
2023/10/12 07:52:48;;;;;;;;;;;;;;;13.90;73.64;100440.42;107522;1260;66363;-79
2023/10/12 07:55:16;;;;;;;;;;;;;;;13.92;73.55;100442.74;105637;1265;125085;-79
2023/10/12 07:57:42;;;;;;;;;;;;;;;14.01;73.57;100448.27;105833;1259;62162;-78
2023/10/12 08:05:24;;;;;;;;;;;;;;;14.48;73.05;100464.03;105769;1262;66030;-78
2023/10/12 08:13:06;;;;;;;;;;;;;;;15.29;72.02;100457.40;105745;1260;123545;-79
2023/10/12 08:15:55;;;;;;;;;;;;;;;15.47;71.17;100454.59;105808;1262;75512;-79
2023/10/12 08:24:03;;;;;;;;;;;;;;;15.87;69.84;100461.85;105522;1259;125362;-79
2023/10/12 08:26:36;;;;;;;;;;;;;;;15.89;69.38;100462.38;105743;1262;62098;-79
2023/10/12 08:32:03;;;;;;;;;;;;;;;15.88;68.59;100477.41;105639;1260;64928;-78
2023/10/12 08:39:38;;;;;;;;;;;;;;;15.88;68.38;100488.91;105779;1265;62072;-80
2023/10/12 08:44:50;;;;;;;;;;;;;;;15.83;67.33;100482.55;105727;1264;66271;-78
2023/10/12 08:47:40;;;;;;;;;;;;;;;15.72;67.16;100482.17;105679;1264;73094;-79
2023/10/12 08:52:50;;;;;;;;;;;;;;;15.52;66.90;100482.35;105747;1260;62061;-78
2023/10/12 08:55:24;;;;;;;;;;;;;;;15.48;66.85;100481.64;105652;1263;124944;-78
2023/10/12 08:57:56;;;;;;;;;;;;;;;15.45;66.50;100491.71;105862;1265;66437;-78
2023/10/12 09:05:51;;;;;;;;;;;;;;;15.52;66.31;100500.38;105785;1262;124591;-77
2023/10/12 09:13:50;;;;;;;;;;;;;;;15.37;65.31;100505.30;105815;1264;124250;-80
2023/10/12 09:16:17;;;;;;;;;;;;;;;15.30;65.48;100511.67;106042;1267;62115;-80
2023/10/12 09:18:46;;;;;;;;;;;;;;;15.34;65.65;100507.27;105420;1269;195590;-77
2023/10/12 09:24:06;;;;;;;;;;;;;;;15.56;65.56;100506.22;107224;1265;127067;-76
2023/10/12 09:26:46;;;;;;;;;;;;;;;15.69;65.47;100510.48;105291;1266;71156;-79
2023/10/12 09:29:23;;;;;;;;;;;;;;;15.80;65.24;100510.33;105249;1270;61997;-78
2023/10/12 09:37:51;;;;;;;;;;;;;;;16.45;64.53;100511.99;105284;1286;125424;-81
2023/10/12 09:40:27;;;;;;;;;;;;;;;16.66;63.84;100512.81;105250;1271;71452;-80
2023/10/12 09:42:54;;;;;;;;;;;;;;;16.91;63.84;100506.70;105767;1269;124943;-79
2023/10/12 09:45:24;;;;;;;;;;;;;;;17.18;63.48;100510.98;105727;1265;61227;-77
2023/10/12 09:47:55;;;;;;;;;;;;;;;17.42;63.23;100504.45;108442;1259;124540;-77
2023/10/12 09:50:27;;;;;;;;;;;;;;;17.63;62.50;100509.63;105869;1260;65287;-77
2023/10/12 09:52:57;;;;;;;;;;;;;;;17.79;62.50;100507.19;105646;1265;71142;-77
2023/10/12 09:55:33;;;;;;;;;;;;;;;17.96;62.17;100506.54;105557;1264;125408;-77
2023/10/12 09:58:12;;;;;;;;;;;;;;;18.04;61.43;100515.35;106151;1260;61992;-78
2023/10/12 10:00:55;;;;;;;;;;;;;;;18.05;61.28;100511.41;105611;1261;124463;-78
2023/10/12 10:03:23;;;;;;;;;;;;;;;18.07;61.06;100510.16;105689;1265;64542;-77
2023/10/12 10:05:54;;;;;;;;;;;;;;;18.12;60.99;100501.06;105565;1260;124820;-77
2023/10/12 10:08:26;;;;;;;;;;;;;;;18.06;60.16;100505.02;105738;1265;62076;-78
2023/10/12 10:10:57;;;;;;;;;;;;;;;17.86;60.21;100506.26;105634;1259;62094;-77
2023/10/12 10:13:37;;;;;;;;;;;;;;;17.71;60.37;100508.14;105576;1259;124443;-77
2023/10/12 10:16:08;;;;;;;;;;;;;;;17.61;60.47;100510.17;105697;1264;66312;-78
2023/10/12 10:18:45;;;;;;;;;;;;;;;17.57;60.57;100509.85;105593;1262;124951;-78
2023/10/12 10:21:13;;;;;;;;;;;;;;;17.48;60.07;100517.20;105654;1262;62032;-78
2023/10/12 10:23:48;;;;;;;;;;;;;;;17.32;60.17;100525.27;105614;1264;124594;-78
2023/10/12 10:26:31;;;;;;;;;;;;;;;17.15;59.94;100529.82;105710;1265;75693;-77
2023/10/12 10:29:05;;;;;;;;;;;;;;;16.95;59.93;100537.70;105670;1263;66236;-78
2023/10/12 10:31:32;;;;;;;;;;;;;;;16.70;58.53;100532.81;105490;1265;124609;-78
2023/10/12 10:34:05;;;;;;;;;;;;;;;16.43;58.40;100538.75;105584;1265;62161;-79
2023/10/12 10:36:34;;;;;;;;;;;;;;;16.20;58.34;100540.73;105481;1259;125057;-79
2023/10/12 10:39:04;;;;;;;;;;;;;;;16.00;58.20;100544.83;105730;1261;74951;-77
2023/10/12 10:44:16;;;;;;;;;;;;;;;15.65;58.28;100554.33;105803;1264;71196;-81
2023/10/12 10:46:44;;;;;;;;;;;;;;;15.59;58.63;100556.80;106496;1263;62096;-82
2023/10/12 10:49:15;;;;;;;;;;;;;;;15.55;58.44;100551.33;106560;1263;124876;-82
2023/10/12 10:51:56;;;;;;;;;;;;;;;15.48;58.49;100552.90;106415;1262;74016;-77
2023/10/12 10:54:22;;;;;;;;;;;;;;;15.42;58.48;100550.42;105703;1264;125028;-79
2023/10/12 10:56:49;;;;;;;;;;;;;;;15.40;58.65;100549.88;105766;1265;72376;-79
2023/10/12 10:59:19;;;;;;;;;;;;;;;15.39;58.76;100549.70;105613;1261;60310;-79
2023/10/12 11:01:49;;;;;;;;;;;;;;;15.42;58.92;100549.70;105587;1263;124274;-79
2023/10/12 11:04:41;;;;;;;;;;;;;;;15.54;59.14;100555.55;106293;1264;74768;-79
2023/10/12 11:07:11;;;;;;;;;;;;;;;15.81;59.04;100559.69;105813;1261;124732;-79
2023/10/12 11:12:21;;;;;;;;;;;;;;;16.26;58.38;100576.14;105626;1263;124416;-79
2023/10/12 11:14:52;;;;;;;;;;;;;;;16.41;58.11;100575.94;105678;1260;62151;-78
2023/10/12 11:17:20;;;;;;;;;;;;;;;16.41;57.74;100576.29;106349;1263;75507;-77
2023/10/12 11:19:49;;;;;;;;;;;;;;;16.38;57.56;100577.01;105686;1264;124552;-77
2023/10/12 11:22:16;;;;;;;;;;;;;;;16.31;57.47;100582.50;105660;1264;72892;-78
2023/10/12 11:24:48;;;;;;;;;;;;;;;16.36;57.71;100588.16;105534;1259;124867;-78
2023/10/12 11:27:31;;;;;;;;;;;;;;;16.44;57.70;100582.31;105771;1259;62206;-79
2023/10/12 11:30:00;;;;;;;;;;;;;;;16.47;57.67;100586.02;105731;1261;124643;-78
2023/10/12 11:32:28;;;;;;;;;;;;;;;16.49;57.89;100590.27;105615;1264;66039;-78
2023/10/12 11:35:01;;;;;;;;;;;;;;;16.58;57.73;100593.09;105528;1261;71246;-77
2023/10/12 11:37:29;;;;;;;;;;;;;;;16.62;57.67;100596.27;105636;1260;125167;-79
2023/10/12 11:39:57;;;;;;;;;;;;;;;16.63;57.49;100599.98;105724;1261;62168;-79
2023/10/12 11:42:24;;;;;;;;;;;;;;;16.70;57.31;100606.35;105571;1265;125064;-79
2023/10/12 11:44:51;;;;;;;;;;;;;;;16.73;57.08;100600.84;105702;1264;66269;-78
2023/10/12 11:47:24;;;;;;;;;;;;;;;16.78;57.28;100596.23;105694;1262;71742;-77
2023/10/12 11:49:58;;;;;;;;;;;;;;;16.85;57.10;100595.88;105758;1260;124385;-78
2023/10/12 11:52:34;;;;;;;;;;;;;;;16.90;57.04;100597.11;105893;1261;61940;-79
2023/10/12 11:55:01;;;;;;;;;;;;;;;16.90;57.02;100591.61;105671;1261;124418;-78
2023/10/12 11:57:28;;;;;;;;;;;;;;;16.95;57.12;100589.47;105773;1263;66312;-79
2023/10/12 11:59:56;;;;;;;;;;;;;;;16.99;56.92;100595.31;105625;1260;124739;-78
2023/10/12 12:02:23;;;;;;;;;;;;;;;16.94;56.62;100593.02;105679;1261;62143;-79
2023/10/12 12:04:51;;;;;;;;;;;;;;;16.90;56.60;100594.80;105801;1263;62044;-78
2023/10/12 12:07:17;;;;;;;;;;;;;;;16.90;56.64;100598.34;105727;1258;124691;-78
2023/10/12 12:09:48;;;;;;;;;;;;;;;16.92;56.66;100599.40;105740;1257;64540;-79
2023/10/12 12:12:16;;;;;;;;;;;;;;;16.86;56.19;100604.38;105658;1259;124778;-79
2023/10/12 12:14:49;;;;;;;;;;;;;;;16.75;56.22;100608.82;105681;1263;60115;-79
2023/10/12 12:17:15;;;;;;;;;;;;;;;16.70;56.42;100609.02;105802;1259;62146;-77
2023/10/12 12:19:42;;;;;;;;;;;;;;;16.71;56.51;100613.44;105593;1259;125214;-78
2023/10/12 12:22:10;;;;;;;;;;;;;;;16.62;56.24;100620.54;105707;1263;66306;-77
2023/10/12 12:24:37;;;;;;;;;;;;;;;16.43;56.31;100615.95;105530;1264;124476;-79
2023/10/12 12:27:05;;;;;;;;;;;;;;;16.23;56.21;100618.80;105799;1259;62052;-79
2023/10/12 12:29:31;;;;;;;;;;;;;;;16.04;56.45;100622.00;105870;1262;125039;-78
2023/10/12 12:31:58;;;;;;;;;;;;;;;15.88;56.78;100621.63;105728;1262;74169;-78
2023/10/12 12:34:47;;;;;;;;;;;;;;;15.83;56.93;100622.16;105845;1262;66056;-79
2023/10/12 12:37:17;;;;;;;;;;;;;;;15.83;57.23;100620.20;105710;1264;124993;-79
2023/10/12 12:39:53;;;;;;;;;;;;;;;15.92;57.37;100626.95;105700;1260;62175;-78
2023/10/12 12:42:20;;;;;;;;;;;;;;;15.99;57.43;100631.73;105622;1273;124836;-79
2023/10/12 12:44:47;;;;;;;;;;;;;;;16.02;57.31;100635.98;105655;1260;74236;-79
2023/10/12 12:47:16;;;;;;;;;;;;;;;16.05;57.47;100637.22;105705;1261;67478;-79
2023/10/12 12:49:43;;;;;;;;;;;;;;;16.13;57.53;100637.05;105545;1260;124583;-78
2023/10/12 12:52:09;;;;;;;;;;;;;;;16.22;57.62;100628.20;105825;1262;62044;-79
2023/10/12 12:54:36;;;;;;;;;;;;;;;16.34;57.56;100629.95;105619;1262;124432;-79
2023/10/12 12:57:04;;;;;;;;;;;;;;;16.40;57.40;100628.90;105685;1259;75590;-79
2023/10/12 12:59:31;;;;;;;;;;;;;;;16.38;57.16;100631.38;105814;1261;124697;-78
2023/10/12 13:01:58;;;;;;;;;;;;;;;16.29;57.05;100634.39;105843;1263;72509;-79
2023/10/12 13:04:26;;;;;;;;;;;;;;;16.16;57.14;100635.28;105743;1260;62067;-79
2023/10/12 13:06:52;;;;;;;;;;;;;;;16.03;57.25;100635.61;105656;1259;125389;-78
2023/10/12 13:09:29;;;;;;;;;;;;;;;15.91;56.81;100634.20;105696;1261;74134;-78
2023/10/12 13:11:56;;;;;;;;;;;;;;;15.84;56.82;100632.06;105808;1260;124619;-78
2023/10/12 13:14:22;;;;;;;;;;;;;;;15.91;56.91;100636.32;105766;1261;72803;-79
2023/10/12 13:16:49;;;;;;;;;;;;;;;16.05;56.72;100630.49;105797;1262;62441;-79
2023/10/12 13:19:17;;;;;;;;;;;;;;;16.15;56.65;100630.49;105623;1263;125564;-79
2023/10/12 13:21:44;;;;;;;;;;;;;;;16.29;56.94;100624.66;105696;1262;73744;-79
2023/10/12 13:24:12;;;;;;;;;;;;;;;16.47;56.73;100624.64;105848;1263;124923;-79
2023/10/12 13:26:43;;;;;;;;;;;;;;;16.55;56.50;100624.46;105858;1263;72141;-79
2023/10/12 13:29:11;;;;;;;;;;;;;;;16.55;56.10;100624.45;105758;1262;62197;-78
2023/10/12 13:31:37;;;;;;;;;;;;;;;16.53;55.67;100625.33;105944;1260;124944;-79
2023/10/12 13:34:05;;;;;;;;;;;;;;;16.50;55.47;100637.92;105873;1262;75545;-80
2023/10/12 13:36:33;;;;;;;;;;;;;;;16.48;55.32;100635.98;105826;1263;125388;-79
2023/10/12 13:38:59;;;;;;;;;;;;;;;16.54;55.59;100638.98;105736;1262;72754;-80
2023/10/12 13:41:26;;;;;;;;;;;;;;;16.63;55.49;100639.85;105712;1260;62236;-79
2023/10/12 13:43:53;;;;;;;;;;;;;;;16.73;55.39;100637.72;105756;1261;125471;-80
2023/10/12 13:46:20;;;;;;;;;;;;;;;16.83;55.36;100638.23;105643;1264;75525;-79
2023/10/12 13:48:49;;;;;;;;;;;;;;;16.96;55.17;100635.55;105580;1261;124526;-79
2023/10/12 13:51:23;;;;;;;;;;;;;;;17.01;55.05;100642.80;105657;1261;72707;-78
2023/10/12 13:53:50;;;;;;;;;;;;;;;16.97;54.70;100644.05;105570;1260;125641;-79
2023/10/12 13:56:23;;;;;;;;;;;;;;;16.91;54.73;100646.20;105629;1260;61984;-80
2023/10/12 13:58:52;;;;;;;;;;;;;;;16.85;54.80;100649.05;105685;1260;74823;-79
2023/10/12 14:01:20;;;;;;;;;;;;;;;16.77;54.51;100647.62;105709;1263;124595;-79
2023/10/12 14:03:57;;;;;;;;;;;;;;;16.65;54.52;100654.37;108891;1260;72706;-80
2023/10/12 14:06:24;;;;;;;;;;;;;;;16.54;54.63;100657.94;108722;1260;124617;-80
2023/10/12 14:08:51;;;;;;;;;;;;;;;16.47;54.73;100664.85;105890;1261;62088;-80
2023/10/12 14:11:17;;;;;;;;;;;;;;;16.41;54.63;100664.49;105768;1260;75456;-80
2023/10/12 14:13:44;;;;;;;;;;;;;;;16.40;54.64;100666.61;106159;1259;125217;-80
2023/10/12 14:16:11;;;;;;;;;;;;;;;16.38;54.60;100668.39;105788;1263;72867;-80
2023/10/12 14:18:38;;;;;;;;;;;;;;;16.28;54.34;100667.33;105616;1259;125665;-80
2023/10/12 14:21:11;;;;;;;;;;;;;;;16.14;54.26;100671.58;105982;1260;62179;-79
2023/10/12 14:23:46;;;;;;;;;;;;;;;16.06;54.59;100673.50;108722;1260;125131;-80
2023/10/12 14:26:17;;;;;;;;;;;;;;;16.04;54.84;100679.52;108917;1259;64991;-80
2023/10/12 14:28:45;;;;;;;;;;;;;;;15.94;54.79;100683.92;108116;1259;71016;-79
2023/10/12 14:31:13;;;;;;;;;;;;;;;15.86;55.03;100684.80;106015;1257;126671;-79
2023/10/12 14:33:40;;;;;;;;;;;;;;;15.81;55.24;100688.86;105840;1261;62002;-80
2023/10/12 14:36:06;;;;;;;;;;;;;;;15.78;55.26;100691.68;105839;1260;125268;-79
2023/10/12 14:38:33;;;;;;;;;;;;;;;15.77;55.36;100698.41;105832;1264;67989;-77